sensor_id;sensor_type;location;lat;lon;timestamp;P1;durP1;ratioP1;P2;durP2;ratioP2
19733;SDS011;10018;51.230;7.860;2023-04-24T00:00:17;2.30;;;0.50;;
19733;SDS011;10018;51.230;7.860;2023-04-24T00:02:43;0.87;;;0.60;;
19733;SDS011;10018;51.230;7.860;2023-04-24T00:05:13;0.70;;;0.50;;
19733;SDS011;10018;51.230;7.860;2023-04-24T00:07:43;1.10;;;0.60;;
19733;SDS011;10018;51.230;7.860;2023-04-24T00:10:10;0.53;;;0.40;;
19733;SDS011;10018;51.230;7.860;2023-04-24T00:12:36;2.17;;;0.50;;
19733;SDS011;10018;51.230;7.860;2023-04-24T00:15:03;0.67;;;0.50;;
19733;SDS011;10018;51.230;7.860;2023-04-24T00:17:29;1.30;;;0.70;;
19733;SDS011;10018;51.230;7.860;2023-04-24T00:19:55;1.53;;;0.70;;
19733;SDS011;10018;51.230;7.860;2023-04-24T00:22:24;0.60;;;0.50;;
19733;SDS011;10018;51.230;7.860;2023-04-24T00:24:50;0.97;;;0.60;;
19733;SDS011;10018;51.230;7.860;2023-04-24T00:27:16;1.33;;;0.80;;
19733;SDS011;10018;51.230;7.860;2023-04-24T00:29:44;1.20;;;0.70;;
19733;SDS011;10018;51.230;7.860;2023-04-24T00:32:09;1.63;;;0.60;;
19733;SDS011;10018;51.230;7.860;2023-04-24T00:34:38;1.70;;;0.60;;
19733;SDS011;10018;51.230;7.860;2023-04-24T00:37:03;0.90;;;0.50;;
19733;SDS011;10018;51.230;7.860;2023-04-24T00:39:29;2.07;;;0.70;;
19733;SDS011;10018;51.230;7.860;2023-04-24T00:41:54;0.97;;;0.63;;
19733;SDS011;10018;51.230;7.860;2023-04-24T00:44:21;1.00;;;0.63;;
19733;SDS011;10018;51.230;7.860;2023-04-24T00:46:47;2.27;;;0.80;;
19733;SDS011;10018;51.230;7.860;2023-04-24T00:49:17;2.17;;;0.77;;
19733;SDS011;10018;51.230;7.860;2023-04-24T00:51:43;2.27;;;0.70;;
19733;SDS011;10018;51.230;7.860;2023-04-24T00:54:11;1.33;;;0.57;;
19733;SDS011;10018;51.230;7.860;2023-04-24T00:56:37;1.37;;;0.60;;
19733;SDS011;10018;51.230;7.860;2023-04-24T00:59:03;2.20;;;0.70;;
19733;SDS011;10018;51.230;7.860;2023-04-24T01:01:29;1.63;;;0.70;;
19733;SDS011;10018;51.230;7.860;2023-04-24T01:03:57;1.47;;;0.83;;
19733;SDS011;10018;51.230;7.860;2023-04-24T01:06:25;1.00;;;0.63;;
19733;SDS011;10018;51.230;7.860;2023-04-24T01:08:53;0.97;;;0.67;;
19733;SDS011;10018;51.230;7.860;2023-04-24T01:11:20;2.10;;;0.97;;
19733;SDS011;10018;51.230;7.860;2023-04-24T01:13:47;2.67;;;0.80;;
19733;SDS011;10018;51.230;7.860;2023-04-24T01:16:13;1.67;;;1.00;;
19733;SDS011;10018;51.230;7.860;2023-04-24T01:18:40;1.43;;;0.80;;
19733;SDS011;10018;51.230;7.860;2023-04-24T01:21:06;2.13;;;1.10;;
19733;SDS011;10018;51.230;7.860;2023-04-24T01:23:37;2.33;;;1.00;;
19733;SDS011;10018;51.230;7.860;2023-04-24T01:26:03;2.00;;;0.90;;
19733;SDS011;10018;51.230;7.860;2023-04-24T01:28:33;1.80;;;1.10;;
19733;SDS011;10018;51.230;7.860;2023-04-24T01:30:59;2.93;;;1.10;;
19733;SDS011;10018;51.230;7.860;2023-04-24T01:33:24;3.13;;;1.00;;
19733;SDS011;10018;51.230;7.860;2023-04-24T01:35:50;2.03;;;1.00;;
19733;SDS011;10018;51.230;7.860;2023-04-24T01:38:16;2.10;;;1.10;;
19733;SDS011;10018;51.230;7.860;2023-04-24T01:40:42;2.73;;;1.10;;
19733;SDS011;10018;51.230;7.860;2023-04-24T01:43:08;2.63;;;1.00;;
19733;SDS011;10018;51.230;7.860;2023-04-24T01:45:33;1.67;;;0.90;;
19733;SDS011;10018;51.230;7.860;2023-04-24T01:47:59;2.13;;;1.00;;
19733;SDS011;10018;51.230;7.860;2023-04-24T01:50:25;2.27;;;1.00;;
19733;SDS011;10018;51.230;7.860;2023-04-24T01:52:53;3.43;;;1.10;;
19733;SDS011;10018;51.230;7.860;2023-04-24T01:55:20;1.60;;;1.00;;
19733;SDS011;10018;51.230;7.860;2023-04-24T01:57:45;1.53;;;0.93;;
19733;SDS011;10018;51.230;7.860;2023-04-24T02:00:11;1.53;;;0.93;;
19733;SDS011;10018;51.230;7.860;2023-04-24T02:02:38;2.90;;;1.00;;
19733;SDS011;10018;51.230;7.860;2023-04-24T02:05:05;1.63;;;1.03;;
19733;SDS011;10018;51.230;7.860;2023-04-24T02:07:34;3.37;;;1.00;;
19733;SDS011;10018;51.230;7.860;2023-04-24T02:10:00;2.07;;;0.80;;
19733;SDS011;10018;51.230;7.860;2023-04-24T02:12:25;2.50;;;1.10;;
19733;SDS011;10018;51.230;7.860;2023-04-24T02:14:51;2.50;;;1.10;;
19733;SDS011;10018;51.230;7.860;2023-04-24T02:17:17;2.13;;;1.30;;
19733;SDS011;10018;51.230;7.860;2023-04-24T02:19:44;2.03;;;1.17;;
19733;SDS011;10018;51.230;7.860;2023-04-24T02:22:09;3.07;;;0.90;;
19733;SDS011;10018;51.230;7.860;2023-04-24T02:24:37;2.77;;;1.00;;
19733;SDS011;10018;51.230;7.860;2023-04-24T02:27:03;2.10;;;1.00;;
19733;SDS011;10018;51.230;7.860;2023-04-24T02:29:29;1.63;;;0.90;;
19733;SDS011;10018;51.230;7.860;2023-04-24T02:31:55;3.47;;;1.00;;
19733;SDS011;10018;51.230;7.860;2023-04-24T02:34:21;2.53;;;0.93;;
19733;SDS011;10018;51.230;7.860;2023-04-24T02:36:47;1.10;;;0.80;;
19733;SDS011;10018;51.230;7.860;2023-04-24T02:39:13;4.97;;;1.10;;
19733;SDS011;10018;51.230;7.860;2023-04-24T02:41:41;5.03;;;2.20;;
19733;SDS011;10018;51.230;7.860;2023-04-24T02:44:07;5.10;;;1.80;;
19733;SDS011;10018;51.230;7.860;2023-04-24T02:46:35;3.83;;;2.23;;
19733;SDS011;10018;51.230;7.860;2023-04-24T02:49:00;7.27;;;2.30;;
19733;SDS011;10018;51.230;7.860;2023-04-24T02:51:26;3.57;;;2.30;;
19733;SDS011;10018;51.230;7.860;2023-04-24T02:53:52;4.77;;;2.30;;
19733;SDS011;10018;51.230;7.860;2023-04-24T02:56:18;3.83;;;2.53;;
19733;SDS011;10018;51.230;7.860;2023-04-24T02:58:43;4.97;;;2.70;;
19733;SDS011;10018;51.230;7.860;2023-04-24T03:01:09;4.20;;;2.90;;
19733;SDS011;10018;51.230;7.860;2023-04-24T03:03:35;4.23;;;2.90;;
19733;SDS011;10018;51.230;7.860;2023-04-24T03:06:01;5.77;;;3.00;;
19733;SDS011;10018;51.230;7.860;2023-04-24T03:08:27;3.90;;;2.87;;
19733;SDS011;10018;51.230;7.860;2023-04-24T03:10:52;6.37;;;3.03;;
19733;SDS011;10018;51.230;7.860;2023-04-24T03:13:18;5.93;;;3.40;;
19733;SDS011;10018;51.230;7.860;2023-04-24T03:15:43;4.43;;;3.00;;
19733;SDS011;10018;51.230;7.860;2023-04-24T03:18:10;6.97;;;2.93;;
19733;SDS011;10018;51.230;7.860;2023-04-24T03:20:35;4.63;;;3.10;;
19733;SDS011;10018;51.230;7.860;2023-04-24T03:23:02;7.00;;;3.50;;
19733;SDS011;10018;51.230;7.860;2023-04-24T03:25:30;5.27;;;3.20;;
19733;SDS011;10018;51.230;7.860;2023-04-24T03:27:55;4.63;;;2.97;;
19733;SDS011;10018;51.230;7.860;2023-04-24T03:30:21;4.60;;;3.10;;
19733;SDS011;10018;51.230;7.860;2023-04-24T03:32:47;4.40;;;3.20;;
19733;SDS011;10018;51.230;7.860;2023-04-24T03:35:15;6.57;;;3.53;;
19733;SDS011;10018;51.230;7.860;2023-04-24T03:37:40;5.67;;;3.43;;
19733;SDS011;10018;51.230;7.860;2023-04-24T03:40:06;4.97;;;3.40;;
19733;SDS011;10018;51.230;7.860;2023-04-24T03:42:33;5.47;;;3.90;;
19733;SDS011;10018;51.230;7.860;2023-04-24T03:45:01;6.70;;;3.77;;
19733;SDS011;10018;51.230;7.860;2023-04-24T03:47:26;8.93;;;4.30;;
19733;SDS011;10018;51.230;7.860;2023-04-24T03:49:52;8.20;;;4.00;;
19733;SDS011;10018;51.230;7.860;2023-04-24T03:52:18;8.67;;;4.87;;
19733;SDS011;10018;51.230;7.860;2023-04-24T03:54:46;8.97;;;5.43;;
19733;SDS011;10018;51.230;7.860;2023-04-24T03:57:12;11.63;;;6.67;;
19733;SDS011;10018;51.230;7.860;2023-04-24T03:59:37;10.73;;;6.40;;
19733;SDS011;10018;51.230;7.860;2023-04-24T04:02:05;9.87;;;6.63;;
19733;SDS011;10018;51.230;7.860;2023-04-24T04:04:31;11.27;;;6.60;;
19733;SDS011;10018;51.230;7.860;2023-04-24T04:06:56;12.47;;;7.03;;
19733;SDS011;10018;51.230;7.860;2023-04-24T04:09:30;9.77;;;6.77;;
19733;SDS011;10018;51.230;7.860;2023-04-24T04:11:58;11.60;;;7.13;;
19733;SDS011;10018;51.230;7.860;2023-04-24T04:14:25;9.80;;;7.10;;
19733;SDS011;10018;51.230;7.860;2023-04-24T04:16:53;12.27;;;7.60;;
19733;SDS011;10018;51.230;7.860;2023-04-24T04:19:21;10.50;;;6.87;;
19733;SDS011;10018;51.230;7.860;2023-04-24T04:21:47;13.00;;;7.87;;
19733;SDS011;10018;51.230;7.860;2023-04-24T04:24:17;13.50;;;7.77;;
19733;SDS011;10018;51.230;7.860;2023-04-24T04:26:43;10.20;;;7.17;;
19733;SDS011;10018;51.230;7.860;2023-04-24T04:29:12;13.13;;;7.90;;
19733;SDS011;10018;51.230;7.860;2023-04-24T04:31:38;11.43;;;7.73;;
19733;SDS011;10018;51.230;7.860;2023-04-24T04:34:06;13.07;;;8.07;;
19733;SDS011;10018;51.230;7.860;2023-04-24T04:36:32;16.43;;;8.00;;
19733;SDS011;10018;51.230;7.860;2023-04-24T04:39:01;13.03;;;8.03;;
19733;SDS011;10018;51.230;7.860;2023-04-24T04:41:32;13.60;;;8.70;;
19733;SDS011;10018;51.230;7.860;2023-04-24T04:44:00;15.10;;;8.30;;
19733;SDS011;10018;51.230;7.860;2023-04-24T04:46:26;14.00;;;8.77;;
19733;SDS011;10018;51.230;7.860;2023-04-24T04:48:57;12.73;;;8.07;;
19733;SDS011;10018;51.230;7.860;2023-04-24T04:51:24;14.33;;;8.20;;
19733;SDS011;10018;51.230;7.860;2023-04-24T04:53:50;13.80;;;8.57;;
19733;SDS011;10018;51.230;7.860;2023-04-24T04:56:15;13.03;;;8.17;;
19733;SDS011;10018;51.230;7.860;2023-04-24T04:58:41;13.30;;;8.70;;
19733;SDS011;10018;51.230;7.860;2023-04-24T05:01:06;12.83;;;8.57;;
19733;SDS011;10018;51.230;7.860;2023-04-24T05:03:32;13.23;;;8.77;;
19733;SDS011;10018;51.230;7.860;2023-04-24T05:05:58;13.67;;;9.30;;
19733;SDS011;10018;51.230;7.860;2023-04-24T05:08:24;14.83;;;8.97;;
19733;SDS011;10018;51.230;7.860;2023-04-24T05:10:49;12.43;;;8.73;;
19733;SDS011;10018;51.230;7.860;2023-04-24T05:13:15;14.57;;;8.90;;
19733;SDS011;10018;51.230;7.860;2023-04-24T05:15:45;15.40;;;8.03;;
19733;SDS011;10018;51.230;7.860;2023-04-24T05:18:11;12.23;;;8.13;;
19733;SDS011;10018;51.230;7.860;2023-04-24T05:20:36;13.60;;;8.23;;
19733;SDS011;10018;51.230;7.860;2023-04-24T05:23:02;11.43;;;8.17;;
19733;SDS011;10018;51.230;7.860;2023-04-24T05:25:28;12.07;;;7.97;;
19733;SDS011;10018;51.230;7.860;2023-04-24T05:27:53;14.73;;;8.10;;
19733;SDS011;10018;51.230;7.860;2023-04-24T05:30:19;11.90;;;8.20;;
19733;SDS011;10018;51.230;7.860;2023-04-24T05:32:45;14.70;;;8.47;;
19733;SDS011;10018;51.230;7.860;2023-04-24T05:35:11;12.37;;;8.53;;
19733;SDS011;10018;51.230;7.860;2023-04-24T05:37:36;12.03;;;7.90;;
19733;SDS011;10018;51.230;7.860;2023-04-24T05:40:02;11.87;;;7.73;;
19733;SDS011;10018;51.230;7.860;2023-04-24T05:42:32;11.73;;;8.07;;
19733;SDS011;10018;51.230;7.860;2023-04-24T05:44:58;11.80;;;6.90;;
19733;SDS011;10018;51.230;7.860;2023-04-24T05:47:26;10.97;;;7.60;;
19733;SDS011;10018;51.230;7.860;2023-04-24T05:49:52;11.60;;;8.07;;
19733;SDS011;10018;51.230;7.860;2023-04-24T05:52:18;11.43;;;7.43;;
19733;SDS011;10018;51.230;7.860;2023-04-24T05:54:43;11.60;;;7.43;;
19733;SDS011;10018;51.230;7.860;2023-04-24T05:57:09;14.70;;;7.37;;
19733;SDS011;10018;51.230;7.860;2023-04-24T05:59:36;11.50;;;7.77;;
19733;SDS011;10018;51.230;7.860;2023-04-24T06:02:03;10.77;;;7.47;;
19733;SDS011;10018;51.230;7.860;2023-04-24T06:04:29;10.70;;;7.23;;
19733;SDS011;10018;51.230;7.860;2023-04-24T06:06:54;11.10;;;7.00;;
19733;SDS011;10018;51.230;7.860;2023-04-24T06:09:24;10.83;;;7.07;;
19733;SDS011;10018;51.230;7.860;2023-04-24T06:11:50;11.80;;;6.83;;
19733;SDS011;10018;51.230;7.860;2023-04-24T06:14:18;13.03;;;6.67;;
19733;SDS011;10018;51.230;7.860;2023-04-24T06:16:44;12.47;;;7.20;;
19733;SDS011;10018;51.230;7.860;2023-04-24T06:19:09;11.60;;;6.97;;
19733;SDS011;10018;51.230;7.860;2023-04-24T06:21:35;9.10;;;6.67;;
19733;SDS011;10018;51.230;7.860;2023-04-24T06:24:00;11.00;;;7.00;;
19733;SDS011;10018;51.230;7.860;2023-04-24T06:26:26;11.37;;;7.27;;
19733;SDS011;10018;51.230;7.860;2023-04-24T06:28:52;11.83;;;7.33;;
19733;SDS011;10018;51.230;7.860;2023-04-24T06:31:21;12.17;;;6.90;;
19733;SDS011;10018;51.230;7.860;2023-04-24T06:33:47;11.20;;;7.50;;
19733;SDS011;10018;51.230;7.860;2023-04-24T06:36:16;11.50;;;7.27;;
19733;SDS011;10018;51.230;7.860;2023-04-24T06:38:42;10.60;;;6.80;;
19733;SDS011;10018;51.230;7.860;2023-04-24T06:41:08;10.07;;;6.93;;
19733;SDS011;10018;51.230;7.860;2023-04-24T06:43:36;10.43;;;6.80;;
19733;SDS011;10018;51.230;7.860;2023-04-24T06:46:02;10.37;;;7.17;;
19733;SDS011;10018;51.230;7.860;2023-04-24T06:48:30;13.17;;;7.70;;
19733;SDS011;10018;51.230;7.860;2023-04-24T06:50:56;9.37;;;6.37;;
19733;SDS011;10018;51.230;7.860;2023-04-24T06:53:21;12.33;;;7.40;;
19733;SDS011;10018;51.230;7.860;2023-04-24T06:55:47;12.23;;;7.50;;
19733;SDS011;10018;51.230;7.860;2023-04-24T06:58:13;9.90;;;7.27;;
19733;SDS011;10018;51.230;7.860;2023-04-24T07:00:39;10.60;;;6.93;;
19733;SDS011;10018;51.230;7.860;2023-04-24T07:03:05;11.10;;;7.37;;
19733;SDS011;10018;51.230;7.860;2023-04-24T07:05:33;10.00;;;6.47;;
19733;SDS011;10018;51.230;7.860;2023-04-24T07:08:00;12.40;;;6.80;;
19733;SDS011;10018;51.230;7.860;2023-04-24T07:10:26;9.63;;;6.87;;
19733;SDS011;10018;51.230;7.860;2023-04-24T07:12:53;10.70;;;6.23;;
19733;SDS011;10018;51.230;7.860;2023-04-24T07:15:20;10.83;;;6.60;;
19733;SDS011;10018;51.230;7.860;2023-04-24T07:17:46;10.00;;;6.90;;
19733;SDS011;10018;51.230;7.860;2023-04-24T07:20:12;9.37;;;6.47;;
19733;SDS011;10018;51.230;7.860;2023-04-24T07:22:39;9.87;;;6.57;;
19733;SDS011;10018;51.230;7.860;2023-04-24T07:25:05;10.23;;;6.20;;
19733;SDS011;10018;51.230;7.860;2023-04-24T07:27:31;10.67;;;5.80;;
19733;SDS011;10018;51.230;7.860;2023-04-24T07:29:57;10.20;;;6.20;;
19733;SDS011;10018;51.230;7.860;2023-04-24T07:32:25;8.77;;;6.40;;
19733;SDS011;10018;51.230;7.860;2023-04-24T07:34:51;11.70;;;6.27;;
19733;SDS011;10018;51.230;7.860;2023-04-24T07:37:16;9.00;;;5.37;;
19733;SDS011;10018;51.230;7.860;2023-04-24T07:39:42;8.63;;;5.80;;
19733;SDS011;10018;51.230;7.860;2023-04-24T07:42:08;8.53;;;5.10;;
19733;SDS011;10018;51.230;7.860;2023-04-24T07:44:33;7.43;;;4.70;;
19733;SDS011;10018;51.230;7.860;2023-04-24T07:46:59;6.47;;;4.07;;
19733;SDS011;10018;51.230;7.860;2023-04-24T07:49:24;6.97;;;3.93;;
19733;SDS011;10018;51.230;7.860;2023-04-24T07:51:50;7.13;;;3.83;;
19733;SDS011;10018;51.230;7.860;2023-04-24T07:54:16;6.50;;;4.20;;
19733;SDS011;10018;51.230;7.860;2023-04-24T07:56:42;5.57;;;3.60;;
19733;SDS011;10018;51.230;7.860;2023-04-24T07:59:08;6.20;;;3.87;;
19733;SDS011;10018;51.230;7.860;2023-04-24T08:01:35;5.07;;;3.30;;
19733;SDS011;10018;51.230;7.860;2023-04-24T08:04:01;4.70;;;3.10;;
19733;SDS011;10018;51.230;7.860;2023-04-24T08:06:27;4.17;;;2.70;;
19733;SDS011;10018;51.230;7.860;2023-04-24T08:08:57;7.00;;;2.83;;
19733;SDS011;10018;51.230;7.860;2023-04-24T08:11:23;4.90;;;2.80;;
19733;SDS011;10018;51.230;7.860;2023-04-24T08:13:49;4.03;;;2.43;;
19733;SDS011;10018;51.230;7.860;2023-04-24T08:16:15;3.90;;;2.50;;
19733;SDS011;10018;51.230;7.860;2023-04-24T08:18:40;2.83;;;1.70;;
19733;SDS011;10018;51.230;7.860;2023-04-24T08:21:08;3.47;;;1.60;;
19733;SDS011;10018;51.230;7.860;2023-04-24T08:23:34;2.93;;;1.60;;
19733;SDS011;10018;51.230;7.860;2023-04-24T08:25:59;3.27;;;1.70;;
19733;SDS011;10018;51.230;7.860;2023-04-24T08:28:25;2.30;;;1.33;;
19733;SDS011;10018;51.230;7.860;2023-04-24T08:30:51;2.00;;;1.50;;
19733;SDS011;10018;51.230;7.860;2023-04-24T08:33:23;1.93;;;1.10;;
19733;SDS011;10018;51.230;7.860;2023-04-24T08:35:51;2.70;;;1.73;;
19733;SDS011;10018;51.230;7.860;2023-04-24T08:38:17;2.10;;;1.30;;
19733;SDS011;10018;51.230;7.860;2023-04-24T08:40:43;2.50;;;1.30;;
19733;SDS011;10018;51.230;7.860;2023-04-24T08:43:10;2.10;;;1.30;;
19733;SDS011;10018;51.230;7.860;2023-04-24T08:45:37;1.53;;;0.90;;
19733;SDS011;10018;51.230;7.860;2023-04-24T08:48:04;2.10;;;1.20;;
19733;SDS011;10018;51.230;7.860;2023-04-24T08:50:31;2.77;;;1.33;;
19733;SDS011;10018;51.230;7.860;2023-04-24T08:52:57;2.10;;;1.10;;
19733;SDS011;10018;51.230;7.860;2023-04-24T08:55:25;1.13;;;0.67;;
19733;SDS011;10018;51.230;7.860;2023-04-24T08:57:52;1.83;;;0.80;;
19733;SDS011;10018;51.230;7.860;2023-04-24T09:00:19;1.43;;;0.80;;
19733;SDS011;10018;51.230;7.860;2023-04-24T09:02:46;0.63;;;0.50;;
19733;SDS011;10018;51.230;7.860;2023-04-24T09:05:14;0.70;;;0.50;;
19733;SDS011;10018;51.230;7.860;2023-04-24T09:07:45;0.80;;;0.50;;
19733;SDS011;10018;51.230;7.860;2023-04-24T09:10:12;1.00;;;0.60;;
19733;SDS011;10018;51.230;7.860;2023-04-24T09:12:41;1.50;;;0.90;;
19733;SDS011;10018;51.230;7.860;2023-04-24T09:15:07;2.17;;;0.50;;
19733;SDS011;10018;51.230;7.860;2023-04-24T09:17:33;1.23;;;0.37;;
19733;SDS011;10018;51.230;7.860;2023-04-24T09:20:00;0.80;;;0.50;;
19733;SDS011;10018;51.230;7.860;2023-04-24T09:22:28;1.03;;;0.50;;
19733;SDS011;10018;51.230;7.860;2023-04-24T09:25:07;0.70;;;0.40;;
19733;SDS011;10018;51.230;7.860;2023-04-24T09:27:34;0.93;;;0.60;;
19733;SDS011;10018;51.230;7.860;2023-04-24T09:30:00;2.33;;;0.60;;
19733;SDS011;10018;51.230;7.860;2023-04-24T09:32:28;0.50;;;0.40;;
19733;SDS011;10018;51.230;7.860;2023-04-24T09:35:07;0.73;;;0.40;;
19733;SDS011;10018;51.230;7.860;2023-04-24T09:37:43;1.97;;;0.50;;
19733;SDS011;10018;51.230;7.860;2023-04-24T09:42:52;0.77;;;0.43;;
19733;SDS011;10018;51.230;7.860;2023-04-24T09:45:20;0.83;;;0.60;;
19733;SDS011;10018;51.230;7.860;2023-04-24T09:47:47;0.80;;;0.60;;
19733;SDS011;10018;51.230;7.860;2023-04-24T09:50:20;1.67;;;1.00;;
19733;SDS011;10018;51.230;7.860;2023-04-24T09:52:47;3.43;;;1.40;;
19733;SDS011;10018;51.230;7.860;2023-04-24T09:55:26;1.50;;;1.03;;
19733;SDS011;10018;51.230;7.860;2023-04-24T09:57:54;1.47;;;0.87;;
19733;SDS011;10018;51.230;7.860;2023-04-24T10:00:22;2.43;;;1.20;;
19733;SDS011;10018;51.230;7.860;2023-04-24T10:02:55;1.60;;;0.80;;
19733;SDS011;10018;51.230;7.860;2023-04-24T10:05:26;2.57;;;1.07;;
19733;SDS011;10018;51.230;7.860;2023-04-24T10:07:59;1.87;;;1.00;;
19733;SDS011;10018;51.230;7.860;2023-04-24T10:10:27;1.53;;;0.90;;
19733;SDS011;10018;51.230;7.860;2023-04-24T10:12:54;2.57;;;1.50;;
19733;SDS011;10018;51.230;7.860;2023-04-24T10:15:20;1.37;;;0.83;;
19733;SDS011;10018;51.230;7.860;2023-04-24T10:17:49;2.67;;;0.90;;
19733;SDS011;10018;51.230;7.860;2023-04-24T10:20:19;0.87;;;0.70;;
19733;SDS011;10018;51.230;7.860;2023-04-24T10:22:49;1.47;;;0.93;;
19733;SDS011;10018;51.230;7.860;2023-04-24T10:25:19;1.17;;;0.80;;
19733;SDS011;10018;51.230;7.860;2023-04-24T10:27:46;1.77;;;0.87;;
19733;SDS011;10018;51.230;7.860;2023-04-24T10:30:13;1.67;;;0.83;;
19733;SDS011;10018;51.230;7.860;2023-04-24T10:32:39;2.43;;;1.00;;
19733;SDS011;10018;51.230;7.860;2023-04-24T10:35:07;1.70;;;1.00;;
19733;SDS011;10018;51.230;7.860;2023-04-24T10:37:40;2.07;;;1.10;;
19733;SDS011;10018;51.230;7.860;2023-04-24T10:40:11;1.90;;;1.03;;
19733;SDS011;10018;51.230;7.860;2023-04-24T10:42:42;1.70;;;1.17;;
19733;SDS011;10018;51.230;7.860;2023-04-24T10:45:21;2.33;;;1.20;;
19733;SDS011;10018;51.230;7.860;2023-04-24T10:47:50;2.50;;;1.30;;
19733;SDS011;10018;51.230;7.860;2023-04-24T10:50:30;2.50;;;1.20;;
19733;SDS011;10018;51.230;7.860;2023-04-24T10:53:20;2.53;;;1.33;;
19733;SDS011;10018;51.230;7.860;2023-04-24T10:55:49;2.20;;;1.30;;
19733;SDS011;10018;51.230;7.860;2023-04-24T10:58:21;1.80;;;1.27;;
19733;SDS011;10018;51.230;7.860;2023-04-24T11:00:58;3.50;;;1.50;;
19733;SDS011;10018;51.230;7.860;2023-04-24T11:03:25;2.97;;;1.70;;
19733;SDS011;10018;51.230;7.860;2023-04-24T11:05:55;2.77;;;1.60;;
19733;SDS011;10018;51.230;7.860;2023-04-24T11:08:25;2.60;;;1.50;;
19733;SDS011;10018;51.230;7.860;2023-04-24T11:10:56;2.97;;;1.63;;
19733;SDS011;10018;51.230;7.860;2023-04-24T11:16:31;2.47;;;1.67;;
19733;SDS011;10018;51.230;7.860;2023-04-24T11:19:07;3.00;;;2.00;;
19733;SDS011;10018;51.230;7.860;2023-04-24T11:21:40;3.40;;;1.90;;
19733;SDS011;10018;51.230;7.860;2023-04-24T11:24:27;3.63;;;1.70;;
19733;SDS011;10018;51.230;7.860;2023-04-24T11:29:48;4.73;;;1.90;;
19733;SDS011;10018;51.230;7.860;2023-04-24T11:32:30;5.40;;;2.53;;
19733;SDS011;10018;51.230;7.860;2023-04-24T11:37:40;5.30;;;3.30;;
19733;SDS011;10018;51.230;7.860;2023-04-24T11:40:11;5.90;;;2.90;;
19733;SDS011;10018;51.230;7.860;2023-04-24T11:42:41;6.97;;;3.90;;
19733;SDS011;10018;51.230;7.860;2023-04-24T11:45:09;6.67;;;3.67;;
19733;SDS011;10018;51.230;7.860;2023-04-24T11:47:36;5.83;;;3.60;;
19733;SDS011;10018;51.230;7.860;2023-04-24T11:50:02;6.33;;;3.40;;
19733;SDS011;10018;51.230;7.860;2023-04-24T11:52:30;5.90;;;3.60;;
19733;SDS011;10018;51.230;7.860;2023-04-24T11:54:56;8.37;;;3.93;;
19733;SDS011;10018;51.230;7.860;2023-04-24T11:57:23;5.17;;;3.20;;
19733;SDS011;10018;51.230;7.860;2023-04-24T11:59:52;7.43;;;3.67;;
19733;SDS011;10018;51.230;7.860;2023-04-24T12:02:21;6.90;;;3.50;;
19733;SDS011;10018;51.230;7.860;2023-04-24T12:04:47;9.37;;;3.80;;
19733;SDS011;10018;51.230;7.860;2023-04-24T12:07:13;7.43;;;4.00;;
19733;SDS011;10018;51.230;7.860;2023-04-24T12:09:40;6.87;;;4.10;;
19733;SDS011;10018;51.230;7.860;2023-04-24T12:12:10;8.33;;;4.00;;
19733;SDS011;10018;51.230;7.860;2023-04-24T12:14:49;8.10;;;4.03;;
19733;SDS011;10018;51.230;7.860;2023-04-24T12:17:17;9.23;;;4.40;;
19733;SDS011;10018;51.230;7.860;2023-04-24T12:19:49;11.80;;;4.67;;
19733;SDS011;10018;51.230;7.860;2023-04-24T12:22:15;11.77;;;5.10;;
19733;SDS011;10018;51.230;7.860;2023-04-24T12:27:36;11.33;;;4.90;;
19733;SDS011;10018;51.230;7.860;2023-04-24T12:30:03;14.13;;;5.53;;
19733;SDS011;10018;51.230;7.860;2023-04-24T12:32:30;15.30;;;5.30;;
19733;SDS011;10018;51.230;7.860;2023-04-24T12:34:57;11.33;;;5.37;;
19733;SDS011;10018;51.230;7.860;2023-04-24T12:37:26;11.27;;;5.97;;
19733;SDS011;10018;51.230;7.860;2023-04-24T12:40:02;10.27;;;5.37;;
19733;SDS011;10018;51.230;7.860;2023-04-24T12:42:31;12.57;;;5.03;;
19733;SDS011;10018;51.230;7.860;2023-04-24T12:45:06;10.13;;;4.63;;
19733;SDS011;10018;51.230;7.860;2023-04-24T12:47:33;9.73;;;4.70;;
19733;SDS011;10018;51.230;7.860;2023-04-24T12:49:59;10.47;;;5.00;;
19733;SDS011;10018;51.230;7.860;2023-04-24T12:52:26;12.97;;;4.30;;
19733;SDS011;10018;51.230;7.860;2023-04-24T12:54:53;12.27;;;4.33;;
19733;SDS011;10018;51.230;7.860;2023-04-24T12:57:20;11.07;;;4.73;;
19733;SDS011;10018;51.230;7.860;2023-04-24T12:59:46;12.10;;;4.23;;
19733;SDS011;10018;51.230;7.860;2023-04-24T13:02:11;10.47;;;4.47;;
19733;SDS011;10018;51.230;7.860;2023-04-24T13:04:37;11.57;;;4.23;;
19733;SDS011;10018;51.230;7.860;2023-04-24T13:07:03;11.53;;;4.50;;
19733;SDS011;10018;51.230;7.860;2023-04-24T13:09:29;11.03;;;4.10;;
19733;SDS011;10018;51.230;7.860;2023-04-24T13:11:55;9.73;;;4.17;;
19733;SDS011;10018;51.230;7.860;2023-04-24T13:14:21;13.57;;;4.50;;
19733;SDS011;10018;51.230;7.860;2023-04-24T13:16:50;17.13;;;4.60;;
19733;SDS011;10018;51.230;7.860;2023-04-24T13:19:15;12.70;;;4.70;;
19733;SDS011;10018;51.230;7.860;2023-04-24T13:21:42;11.17;;;4.07;;
19733;SDS011;10018;51.230;7.860;2023-04-24T13:24:07;10.80;;;4.10;;
19733;SDS011;10018;51.230;7.860;2023-04-24T13:26:33;15.93;;;3.87;;
19733;SDS011;10018;51.230;7.860;2023-04-24T13:28:59;15.40;;;4.53;;
19733;SDS011;10018;51.230;7.860;2023-04-24T13:31:24;14.33;;;4.60;;
19733;SDS011;10018;51.230;7.860;2023-04-24T13:33:50;11.77;;;3.90;;
19733;SDS011;10018;51.230;7.860;2023-04-24T13:36:16;12.33;;;4.40;;
19733;SDS011;10018;51.230;7.860;2023-04-24T13:38:42;10.80;;;4.70;;
19733;SDS011;10018;51.230;7.860;2023-04-24T13:41:11;11.17;;;4.50;;
19733;SDS011;10018;51.230;7.860;2023-04-24T13:43:39;9.57;;;4.20;;
19733;SDS011;10018;51.230;7.860;2023-04-24T13:46:07;10.97;;;3.90;;
19733;SDS011;10018;51.230;7.860;2023-04-24T13:48:32;13.53;;;4.00;;
19733;SDS011;10018;51.230;7.860;2023-04-24T13:50:58;7.73;;;3.73;;
19733;SDS011;10018;51.230;7.860;2023-04-24T13:53:24;10.87;;;4.63;;
19733;SDS011;10018;51.230;7.860;2023-04-24T13:55:49;11.50;;;4.13;;
19733;SDS011;10018;51.230;7.860;2023-04-24T13:58:15;7.90;;;3.60;;
19733;SDS011;10018;51.230;7.860;2023-04-24T14:00:40;9.67;;;3.83;;
19733;SDS011;10018;51.230;7.860;2023-04-24T14:03:06;9.13;;;4.43;;
19733;SDS011;10018;51.230;7.860;2023-04-24T14:05:32;9.80;;;3.67;;
19733;SDS011;10018;51.230;7.860;2023-04-24T14:07:58;9.80;;;3.73;;
19733;SDS011;10018;51.230;7.860;2023-04-24T14:10:23;11.00;;;3.60;;
19733;SDS011;10018;51.230;7.860;2023-04-24T14:12:49;10.27;;;4.13;;
19733;SDS011;10018;51.230;7.860;2023-04-24T14:15:15;8.97;;;3.20;;
19733;SDS011;10018;51.230;7.860;2023-04-24T14:17:41;8.07;;;3.23;;
19733;SDS011;10018;51.230;7.860;2023-04-24T14:20:07;7.73;;;3.73;;
19733;SDS011;10018;51.230;7.860;2023-04-24T14:22:34;7.60;;;3.80;;
19733;SDS011;10018;51.230;7.860;2023-04-24T14:24:59;9.37;;;4.00;;
19733;SDS011;10018;51.230;7.860;2023-04-24T14:27:25;7.50;;;3.87;;
19733;SDS011;10018;51.230;7.860;2023-04-24T14:29:51;7.50;;;3.03;;
19733;SDS011;10018;51.230;7.860;2023-04-24T14:32:17;6.37;;;3.50;;
19733;SDS011;10018;51.230;7.860;2023-04-24T14:34:43;7.23;;;3.23;;
19733;SDS011;10018;51.230;7.860;2023-04-24T14:37:08;7.30;;;3.20;;
19733;SDS011;10018;51.230;7.860;2023-04-24T14:39:34;9.27;;;3.17;;
19733;SDS011;10018;51.230;7.860;2023-04-24T14:42:00;7.77;;;3.53;;
19733;SDS011;10018;51.230;7.860;2023-04-24T14:44:26;8.43;;;3.57;;
19733;SDS011;10018;51.230;7.860;2023-04-24T14:46:52;9.73;;;3.07;;
19733;SDS011;10018;51.230;7.860;2023-04-24T14:49:18;9.10;;;3.40;;
19733;SDS011;10018;51.230;7.860;2023-04-24T14:51:44;5.93;;;3.07;;
19733;SDS011;10018;51.230;7.860;2023-04-24T14:54:09;7.33;;;2.77;;
19733;SDS011;10018;51.230;7.860;2023-04-24T14:56:35;6.50;;;2.70;;